sensor_id;sensor_type;location;lat;lon;timestamp;temperature;humidity
5786;DHT22;2919;48.630;9.000;2023-09-19T00:01:33;15.20;99.90
5786;DHT22;2919;48.630;9.000;2023-09-19T00:03:58;15.20;99.90
5786;DHT22;2919;48.630;9.000;2023-09-19T00:06:25;15.20;99.90
5786;DHT22;2919;48.630;9.000;2023-09-19T00:08:53;15.20;99.90
5786;DHT22;2919;48.630;9.000;2023-09-19T00:11:20;15.20;99.90
5786;DHT22;2919;48.630;9.000;2023-09-19T00:13:47;15.20;99.90
5786;DHT22;2919;48.630;9.000;2023-09-19T00:16:15;15.20;99.90
5786;DHT22;2919;48.630;9.000;2023-09-19T00:18:41;15.20;99.90
5786;DHT22;2919;48.630;9.000;2023-09-19T00:21:07;15.20;99.90
5786;DHT22;2919;48.630;9.000;2023-09-19T00:23:33;15.20;99.90
5786;DHT22;2919;48.630;9.000;2023-09-19T00:25:59;15.30;99.90
5786;DHT22;2919;48.630;9.000;2023-09-19T00:28:28;15.20;99.90
5786;DHT22;2919;48.630;9.000;2023-09-19T00:30:57;15.20;99.90
5786;DHT22;2919;48.630;9.000;2023-09-19T00:33:26;15.20;99.90
5786;DHT22;2919;48.630;9.000;2023-09-19T00:35:56;15.10;99.90
5786;DHT22;2919;48.630;9.000;2023-09-19T00:38:22;15.10;99.90
5786;DHT22;2919;48.630;9.000;2023-09-19T00:40:53;15.20;99.90
5786;DHT22;2919;48.630;9.000;2023-09-19T00:43:20;15.10;99.90
5786;DHT22;2919;48.630;9.000;2023-09-19T00:45:47;15.10;99.90
5786;DHT22;2919;48.630;9.000;2023-09-19T00:48:15;15.10;99.90
5786;DHT22;2919;48.630;9.000;2023-09-19T00:50:44;15.20;99.90
5786;DHT22;2919;48.630;9.000;2023-09-19T00:53:14;15.20;99.90
5786;DHT22;2919;48.630;9.000;2023-09-19T00:55:41;15.10;99.90
5786;DHT22;2919;48.630;9.000;2023-09-19T00:58:08;15.10;99.90
5786;DHT22;2919;48.630;9.000;2023-09-19T01:00:36;15.10;99.90
5786;DHT22;2919;48.630;9.000;2023-09-19T01:03:02;15.10;99.90
5786;DHT22;2919;48.630;9.000;2023-09-19T01:05:27;15.10;99.90
5786;DHT22;2919;48.630;9.000;2023-09-19T01:07:53;15.10;99.90
5786;DHT22;2919;48.630;9.000;2023-09-19T01:10:20;15.10;99.90
5786;DHT22;2919;48.630;9.000;2023-09-19T01:20:50;15.10;99.90
5786;DHT22;2919;48.630;9.000;2023-09-19T01:23:21;15.00;99.90
5786;DHT22;2919;48.630;9.000;2023-09-19T01:31:29;15.10;99.90
5786;DHT22;2919;48.630;9.000;2023-09-19T01:34:03;15.10;99.90
5786;DHT22;2919;48.630;9.000;2023-09-19T01:36:37;15.10;99.90
5786;DHT22;2919;48.630;9.000;2023-09-19T01:39:10;15.10;99.90
5786;DHT22;2919;48.630;9.000;2023-09-19T01:42:06;15.20;99.90
5786;DHT22;2919;48.630;9.000;2023-09-19T01:47:21;15.20;99.90
5786;DHT22;2919;48.630;9.000;2023-09-19T01:52:46;15.20;99.90
5786;DHT22;2919;48.630;9.000;2023-09-19T01:55:14;15.30;99.90
5786;DHT22;2919;48.630;9.000;2023-09-19T01:57:49;15.20;99.90
5786;DHT22;2919;48.630;9.000;2023-09-19T02:00:20;15.20;99.90
5786;DHT22;2919;48.630;9.000;2023-09-19T02:02:47;15.20;99.90
5786;DHT22;2919;48.630;9.000;2023-09-19T02:05:22;15.20;99.90
5786;DHT22;2919;48.630;9.000;2023-09-19T02:07:49;15.10;99.90
5786;DHT22;2919;48.630;9.000;2023-09-19T02:10:14;15.00;99.90
5786;DHT22;2919;48.630;9.000;2023-09-19T02:12:40;15.00;99.90
5786;DHT22;2919;48.630;9.000;2023-09-19T02:15:06;14.90;99.90
5786;DHT22;2919;48.630;9.000;2023-09-19T02:17:32;14.90;99.90
5786;DHT22;2919;48.630;9.000;2023-09-19T02:19:58;14.90;99.90
5786;DHT22;2919;48.630;9.000;2023-09-19T02:22:24;14.80;99.90
5786;DHT22;2919;48.630;9.000;2023-09-19T02:24:50;14.80;99.90
5786;DHT22;2919;48.630;9.000;2023-09-19T02:27:16;14.80;99.90
5786;DHT22;2919;48.630;9.000;2023-09-19T02:29:43;14.80;99.90
5786;DHT22;2919;48.630;9.000;2023-09-19T02:32:09;14.80;99.90
5786;DHT22;2919;48.630;9.000;2023-09-19T02:34:35;14.90;99.90
5786;DHT22;2919;48.630;9.000;2023-09-19T02:37:05;14.80;99.90
5786;DHT22;2919;48.630;9.000;2023-09-19T02:39:32;14.80;99.90
5786;DHT22;2919;48.630;9.000;2023-09-19T02:41:57;14.80;99.90
5786;DHT22;2919;48.630;9.000;2023-09-19T02:44:23;14.70;99.90
5786;DHT22;2919;48.630;9.000;2023-09-19T02:46:49;14.70;99.90
5786;DHT22;2919;48.630;9.000;2023-09-19T02:49:15;14.70;99.90
5786;DHT22;2919;48.630;9.000;2023-09-19T02:51:43;14.70;99.90
5786;DHT22;2919;48.630;9.000;2023-09-19T02:54:09;14.70;99.90
5786;DHT22;2919;48.630;9.000;2023-09-19T02:56:35;14.80;99.90
5786;DHT22;2919;48.630;9.000;2023-09-19T02:59:01;14.80;99.90
5786;DHT22;2919;48.630;9.000;2023-09-19T03:01:27;14.80;99.90
5786;DHT22;2919;48.630;9.000;2023-09-19T03:03:55;14.80;99.90
5786;DHT22;2919;48.630;9.000;2023-09-19T03:06:21;14.80;99.90
5786;DHT22;2919;48.630;9.000;2023-09-19T03:08:49;14.90;99.90
5786;DHT22;2919;48.630;9.000;2023-09-19T03:11:17;14.90;99.90
5786;DHT22;2919;48.630;9.000;2023-09-19T03:13:50;15.00;99.90
5786;DHT22;2919;48.630;9.000;2023-09-19T03:16:16;15.00;99.90
5786;DHT22;2919;48.630;9.000;2023-09-19T03:18:41;15.00;99.90
5786;DHT22;2919;48.630;9.000;2023-09-19T03:21:07;15.00;99.90
5786;DHT22;2919;48.630;9.000;2023-09-19T03:23:33;15.10;99.90
5786;DHT22;2919;48.630;9.000;2023-09-19T03:25:59;15.10;99.90
5786;DHT22;2919;48.630;9.000;2023-09-19T03:28:24;15.10;99.90
5786;DHT22;2919;48.630;9.000;2023-09-19T03:31:04;15.10;99.90
5786;DHT22;2919;48.630;9.000;2023-09-19T03:33:30;15.10;99.90
5786;DHT22;2919;48.630;9.000;2023-09-19T03:36:00;15.00;99.90
5786;DHT22;2919;48.630;9.000;2023-09-19T03:38:27;15.00;99.90
5786;DHT22;2919;48.630;9.000;2023-09-19T03:40:53;15.10;99.90
5786;DHT22;2919;48.630;9.000;2023-09-19T03:43:19;15.10;99.90
5786;DHT22;2919;48.630;9.000;2023-09-19T03:45:44;15.10;99.90
5786;DHT22;2919;48.630;9.000;2023-09-19T03:48:12;15.10;99.90
5786;DHT22;2919;48.630;9.000;2023-09-19T03:50:38;15.00;99.90
5786;DHT22;2919;48.630;9.000;2023-09-19T03:53:04;15.00;99.90
5786;DHT22;2919;48.630;9.000;2023-09-19T03:55:32;15.00;99.90
5786;DHT22;2919;48.630;9.000;2023-09-19T03:57:58;15.00;99.90
5786;DHT22;2919;48.630;9.000;2023-09-19T04:00:23;14.90;99.90
5786;DHT22;2919;48.630;9.000;2023-09-19T04:02:52;14.90;99.90
5786;DHT22;2919;48.630;9.000;2023-09-19T04:05:19;14.90;99.90
5786;DHT22;2919;48.630;9.000;2023-09-19T04:07:44;14.80;99.90
5786;DHT22;2919;48.630;9.000;2023-09-19T04:10:10;14.90;99.90
5786;DHT22;2919;48.630;9.000;2023-09-19T04:12:37;14.90;99.90
5786;DHT22;2919;48.630;9.000;2023-09-19T04:15:04;14.90;99.90
5786;DHT22;2919;48.630;9.000;2023-09-19T04:17:30;14.90;99.90
5786;DHT22;2919;48.630;9.000;2023-09-19T04:19:58;15.00;99.90
5786;DHT22;2919;48.630;9.000;2023-09-19T04:22:24;15.00;99.90
5786;DHT22;2919;48.630;9.000;2023-09-19T04:24:50;15.00;99.90
5786;DHT22;2919;48.630;9.000;2023-09-19T04:27:15;15.00;99.90
5786;DHT22;2919;48.630;9.000;2023-09-19T04:29:41;15.00;99.90
5786;DHT22;2919;48.630;9.000;2023-09-19T04:32:07;15.10;99.90
5786;DHT22;2919;48.630;9.000;2023-09-19T04:34:33;15.10;99.90
5786;DHT22;2919;48.630;9.000;2023-09-19T04:37:00;15.10;99.90
5786;DHT22;2919;48.630;9.000;2023-09-19T04:39:26;15.10;99.90
5786;DHT22;2919;48.630;9.000;2023-09-19T04:41:52;15.10;99.90
5786;DHT22;2919;48.630;9.000;2023-09-19T04:44:18;15.10;99.90
5786;DHT22;2919;48.630;9.000;2023-09-19T04:46:44;15.10;99.90
5786;DHT22;2919;48.630;9.000;2023-09-19T04:49:11;15.10;99.90
5786;DHT22;2919;48.630;9.000;2023-09-19T04:51:38;15.20;99.90
5786;DHT22;2919;48.630;9.000;2023-09-19T04:54:04;15.20;99.90
5786;DHT22;2919;48.630;9.000;2023-09-19T04:56:30;15.10;99.90
5786;DHT22;2919;48.630;9.000;2023-09-19T04:58:56;15.10;99.90
5786;DHT22;2919;48.630;9.000;2023-09-19T05:01:24;15.20;99.90
5786;DHT22;2919;48.630;9.000;2023-09-19T05:03:50;15.20;99.90
5786;DHT22;2919;48.630;9.000;2023-09-19T05:06:19;15.10;99.90
5786;DHT22;2919;48.630;9.000;2023-09-19T05:08:49;15.00;99.90
5786;DHT22;2919;48.630;9.000;2023-09-19T05:11:20;15.00;99.90
5786;DHT22;2919;48.630;9.000;2023-09-19T05:13:47;15.00;99.90
5786;DHT22;2919;48.630;9.000;2023-09-19T05:16:13;14.90;99.90
5786;DHT22;2919;48.630;9.000;2023-09-19T05:18:39;14.80;99.90
5786;DHT22;2919;48.630;9.000;2023-09-19T05:21:05;14.80;99.90
5786;DHT22;2919;48.630;9.000;2023-09-19T05:23:30;14.80;99.90
5786;DHT22;2919;48.630;9.000;2023-09-19T05:25:56;14.80;99.90
5786;DHT22;2919;48.630;9.000;2023-09-19T05:28:25;14.80;99.90
5786;DHT22;2919;48.630;9.000;2023-09-19T05:30:52;14.70;99.90
5786;DHT22;2919;48.630;9.000;2023-09-19T05:33:18;14.70;99.90
5786;DHT22;2919;48.630;9.000;2023-09-19T05:35:44;14.70;99.90
5786;DHT22;2919;48.630;9.000;2023-09-19T05:38:13;14.70;99.90
5786;DHT22;2919;48.630;9.000;2023-09-19T05:40:39;14.70;99.90
5786;DHT22;2919;48.630;9.000;2023-09-19T05:43:08;14.70;99.90
5786;DHT22;2919;48.630;9.000;2023-09-19T05:45:34;14.70;99.90
5786;DHT22;2919;48.630;9.000;2023-09-19T05:48:10;14.70;99.90
5786;DHT22;2919;48.630;9.000;2023-09-19T05:50:37;14.70;99.90
5786;DHT22;2919;48.630;9.000;2023-09-19T05:53:03;14.70;99.90
5786;DHT22;2919;48.630;9.000;2023-09-19T05:55:30;14.70;99.90
5786;DHT22;2919;48.630;9.000;2023-09-19T05:57:55;14.70;99.90
5786;DHT22;2919;48.630;9.000;2023-09-19T06:00:23;14.70;99.90
5786;DHT22;2919;48.630;9.000;2023-09-19T06:05:17;14.70;99.90
5786;DHT22;2919;48.630;9.000;2023-09-19T06:07:43;14.70;99.90
5786;DHT22;2919;48.630;9.000;2023-09-19T06:10:09;14.70;99.90
5786;DHT22;2919;48.630;9.000;2023-09-19T06:12:41;14.70;99.90
5786;DHT22;2919;48.630;9.000;2023-09-19T06:15:11;14.70;99.90
5786;DHT22;2919;48.630;9.000;2023-09-19T06:17:49;14.80;99.90
5786;DHT22;2919;48.630;9.000;2023-09-19T06:20:15;14.80;99.90
5786;DHT22;2919;48.630;9.000;2023-09-19T06:22:42;14.80;99.90
5786;DHT22;2919;48.630;9.000;2023-09-19T06:25:12;14.90;99.90
5786;DHT22;2919;48.630;9.000;2023-09-19T06:27:40;14.90;99.90
5786;DHT22;2919;48.630;9.000;2023-09-19T06:30:10;15.00;99.90
5786;DHT22;2919;48.630;9.000;2023-09-19T06:32:40;15.00;99.90
5786;DHT22;2919;48.630;9.000;2023-09-19T06:35:10;15.00;99.90
5786;DHT22;2919;48.630;9.000;2023-09-19T06:37:37;15.10;99.90
5786;DHT22;2919;48.630;9.000;2023-09-19T06:40:12;15.20;99.90
5786;DHT22;2919;48.630;9.000;2023-09-19T06:42:44;15.20;99.90
5786;DHT22;2919;48.630;9.000;2023-09-19T06:45:13;15.20;99.90
5786;DHT22;2919;48.630;9.000;2023-09-19T06:47:47;15.20;99.90
5786;DHT22;2919;48.630;9.000;2023-09-19T06:50:20;15.20;99.90
5786;DHT22;2919;48.630;9.000;2023-09-19T06:52:49;15.30;99.90
5786;DHT22;2919;48.630;9.000;2023-09-19T06:55:16;15.40;99.90
5786;DHT22;2919;48.630;9.000;2023-09-19T06:57:42;15.40;99.90
5786;DHT22;2919;48.630;9.000;2023-09-19T07:00:10;15.50;99.90
5786;DHT22;2919;48.630;9.000;2023-09-19T07:02:54;15.50;99.90
5786;DHT22;2919;48.630;9.000;2023-09-19T07:05:20;15.60;99.90
5786;DHT22;2919;48.630;9.000;2023-09-19T07:07:47;15.70;99.90
5786;DHT22;2919;48.630;9.000;2023-09-19T07:10:12;15.70;99.90
5786;DHT22;2919;48.630;9.000;2023-09-19T07:12:38;15.80;99.90
5786;DHT22;2919;48.630;9.000;2023-09-19T07:15:04;16.00;99.90
5786;DHT22;2919;48.630;9.000;2023-09-19T07:17:31;16.10;99.90
5786;DHT22;2919;48.630;9.000;2023-09-19T07:19:58;16.10;99.90
5786;DHT22;2919;48.630;9.000;2023-09-19T07:22:24;16.10;99.90
5786;DHT22;2919;48.630;9.000;2023-09-19T07:24:49;16.20;99.90
5786;DHT22;2919;48.630;9.000;2023-09-19T07:27:15;16.30;99.90
5786;DHT22;2919;48.630;9.000;2023-09-19T07:29:41;16.40;99.90
5786;DHT22;2919;48.630;9.000;2023-09-19T07:32:07;16.60;99.90
5786;DHT22;2919;48.630;9.000;2023-09-19T07:34:35;16.80;99.90
5786;DHT22;2919;48.630;9.000;2023-09-19T07:37:01;16.80;99.90
5786;DHT22;2919;48.630;9.000;2023-09-19T07:39:28;16.80;99.90
5786;DHT22;2919;48.630;9.000;2023-09-19T07:41:53;16.90;99.90
5786;DHT22;2919;48.630;9.000;2023-09-19T07:44:19;17.10;99.90
5786;DHT22;2919;48.630;9.000;2023-09-19T07:46:45;17.30;99.90
5786;DHT22;2919;48.630;9.000;2023-09-19T07:49:11;17.40;99.90
5786;DHT22;2919;48.630;9.000;2023-09-19T07:51:37;17.50;99.90
5786;DHT22;2919;48.630;9.000;2023-09-19T07:54:02;17.70;99.90
5786;DHT22;2919;48.630;9.000;2023-09-19T07:56:29;17.80;99.90
5786;DHT22;2919;48.630;9.000;2023-09-19T07:58:56;18.20;99.90
5786;DHT22;2919;48.630;9.000;2023-09-19T08:01:24;18.70;99.90
5786;DHT22;2919;48.630;9.000;2023-09-19T08:03:52;19.20;99.90
5786;DHT22;2919;48.630;9.000;2023-09-19T08:06:18;19.20;99.90
5786;DHT22;2919;48.630;9.000;2023-09-19T08:08:45;19.40;99.90
5786;DHT22;2919;48.630;9.000;2023-09-19T08:11:11;19.50;99.90
5786;DHT22;2919;48.630;9.000;2023-09-19T08:13:38;19.60;99.90
5786;DHT22;2919;48.630;9.000;2023-09-19T08:16:12;19.30;99.90
5786;DHT22;2919;48.630;9.000;2023-09-19T08:18:38;19.40;99.90
5786;DHT22;2919;48.630;9.000;2023-09-19T08:21:05;19.30;99.90
5786;DHT22;2919;48.630;9.000;2023-09-19T08:23:33;19.30;99.90
5786;DHT22;2919;48.630;9.000;2023-09-19T08:25:59;19.50;99.90
5786;DHT22;2919;48.630;9.000;2023-09-19T08:28:28;19.50;99.90
5786;DHT22;2919;48.630;9.000;2023-09-19T08:30:55;19.50;99.90
5786;DHT22;2919;48.630;9.000;2023-09-19T08:33:21;19.40;99.90
5786;DHT22;2919;48.630;9.000;2023-09-19T08:35:46;19.20;99.90
5786;DHT22;2919;48.630;9.000;2023-09-19T08:38:12;19.30;99.90
5786;DHT22;2919;48.630;9.000;2023-09-19T08:40:39;19.30;99.90
5786;DHT22;2919;48.630;9.000;2023-09-19T08:43:07;19.50;99.90
5786;DHT22;2919;48.630;9.000;2023-09-19T08:45:33;19.50;99.90
5786;DHT22;2919;48.630;9.000;2023-09-19T08:50:31;19.60;99.90
5786;DHT22;2919;48.630;9.000;2023-09-19T08:53:09;19.80;99.90
5786;DHT22;2919;48.630;9.000;2023-09-19T08:55:36;19.90;99.90
5786;DHT22;2919;48.630;9.000;2023-09-19T08:58:03;19.50;99.90
5786;DHT22;2919;48.630;9.000;2023-09-19T09:00:30;19.10;99.90
5786;DHT22;2919;48.630;9.000;2023-09-19T09:02:57;19.00;99.90
5786;DHT22;2919;48.630;9.000;2023-09-19T09:05:24;18.90;99.90
5786;DHT22;2919;48.630;9.000;2023-09-19T09:07:52;18.90;99.90
5786;DHT22;2919;48.630;9.000;2023-09-19T09:10:21;18.70;99.90
5786;DHT22;2919;48.630;9.000;2023-09-19T09:12:51;18.90;99.90
5786;DHT22;2919;48.630;9.000;2023-09-19T09:15:19;19.00;99.90
5786;DHT22;2919;48.630;9.000;2023-09-19T09:17:48;19.40;99.90
5786;DHT22;2919;48.630;9.000;2023-09-19T09:20:18;19.90;99.90
5786;DHT22;2919;48.630;9.000;2023-09-19T09:22:57;20.10;99.90
5786;DHT22;2919;48.630;9.000;2023-09-19T09:25:52;20.30;99.90
5786;DHT22;2919;48.630;9.000;2023-09-19T09:28:21;20.40;99.90
5786;DHT22;2919;48.630;9.000;2023-09-19T09:30:47;20.20;99.80
5786;DHT22;2919;48.630;9.000;2023-09-19T09:33:14;20.30;99.90
5786;DHT22;2919;48.630;9.000;2023-09-19T09:38:21;20.30;99.40
5786;DHT22;2919;48.630;9.000;2023-09-19T09:40:51;19.90;98.60
5786;DHT22;2919;48.630;9.000;2023-09-19T09:43:33;19.70;98.80
5786;DHT22;2919;48.630;9.000;2023-09-19T09:46:13;19.50;99.60
5786;DHT22;2919;48.630;9.000;2023-09-19T09:51:36;19.30;99.10
5786;DHT22;2919;48.630;9.000;2023-09-19T09:54:14;19.40;99.00
5786;DHT22;2919;48.630;9.000;2023-09-19T10:02:26;19.40;99.30
5786;DHT22;2919;48.630;9.000;2023-09-19T10:04:55;19.50;99.90
5786;DHT22;2919;48.630;9.000;2023-09-19T10:07:40;19.40;99.20
5786;DHT22;2919;48.630;9.000;2023-09-19T10:10:08;19.30;99.80
5786;DHT22;2919;48.630;9.000;2023-09-19T10:12:48;19.10;99.90
5786;DHT22;2919;48.630;9.000;2023-09-19T10:15:18;19.20;99.90
5786;DHT22;2919;48.630;9.000;2023-09-19T10:17:47;19.40;99.60
5786;DHT22;2919;48.630;9.000;2023-09-19T10:20:18;19.60;99.80
5786;DHT22;2919;48.630;9.000;2023-09-19T10:23:06;19.80;98.90
5786;DHT22;2919;48.630;9.000;2023-09-19T10:25:39;20.10;99.90
5786;DHT22;2919;48.630;9.000;2023-09-19T10:28:06;20.60;97.90
5786;DHT22;2919;48.630;9.000;2023-09-19T10:30:37;20.80;97.70
5786;DHT22;2919;48.630;9.000;2023-09-19T10:33:07;20.90;98.30
5786;DHT22;2919;48.630;9.000;2023-09-19T10:35:34;21.20;98.10
5786;DHT22;2919;48.630;9.000;2023-09-19T10:38:03;21.20;96.90
5786;DHT22;2919;48.630;9.000;2023-09-19T10:40:29;21.00;98.50
5786;DHT22;2919;48.630;9.000;2023-09-19T10:43:07;20.80;99.60
5786;DHT22;2919;48.630;9.000;2023-09-19T10:45:36;20.40;98.40
5786;DHT22;2919;48.630;9.000;2023-09-19T10:48:05;20.10;99.60
5786;DHT22;2919;48.630;9.000;2023-09-19T10:53:12;20.10;98.70
5786;DHT22;2919;48.630;9.000;2023-09-19T10:55:39;20.10;99.30
5786;DHT22;2919;48.630;9.000;2023-09-19T10:58:05;20.50;98.20
5786;DHT22;2919;48.630;9.000;2023-09-19T11:00:59;20.60;98.00
5786;DHT22;2919;48.630;9.000;2023-09-19T11:03:28;20.50;97.90
5786;DHT22;2919;48.630;9.000;2023-09-19T11:06:08;20.30;97.70
5786;DHT22;2919;48.630;9.000;2023-09-19T11:30:38;19.10;99.60
5786;DHT22;2919;48.630;9.000;2023-09-19T11:33:19;19.00;99.50
5786;DHT22;2919;48.630;9.000;2023-09-19T11:46:26;19.40;99.90
5786;DHT22;2919;48.630;9.000;2023-09-19T11:48:54;19.40;99.90
5786;DHT22;2919;48.630;9.000;2023-09-19T11:51:23;19.60;99.90
5786;DHT22;2919;48.630;9.000;2023-09-19T11:53:56;19.60;99.90
5786;DHT22;2919;48.630;9.000;2023-09-19T11:56:24;19.60;99.20
5786;DHT22;2919;48.630;9.000;2023-09-19T11:58:54;19.70;98.80
5786;DHT22;2919;48.630;9.000;2023-09-19T12:01:30;20.00;99.10
5786;DHT22;2919;48.630;9.000;2023-09-19T12:03:59;19.80;99.20
5786;DHT22;2919;48.630;9.000;2023-09-19T12:06:26;19.70;98.40
5786;DHT22;2919;48.630;9.000;2023-09-19T12:08:52;19.80;99.10
5786;DHT22;2919;48.630;9.000;2023-09-19T12:11:29;20.20;98.80
5786;DHT22;2919;48.630;9.000;2023-09-19T12:13:59;20.10;97.90
5786;DHT22;2919;48.630;9.000;2023-09-19T12:16:26;20.40;98.40
5786;DHT22;2919;48.630;9.000;2023-09-19T12:18:56;20.30;97.70
5786;DHT22;2919;48.630;9.000;2023-09-19T12:24:11;20.50;97.80
5786;DHT22;2919;48.630;9.000;2023-09-19T12:26:43;20.50;97.40
5786;DHT22;2919;48.630;9.000;2023-09-19T12:29:16;20.50;97.70
5786;DHT22;2919;48.630;9.000;2023-09-19T12:31:56;20.40;98.20
5786;DHT22;2919;48.630;9.000;2023-09-19T12:34:32;20.50;98.90
5786;DHT22;2919;48.630;9.000;2023-09-19T12:39:38;20.70;98.40
5786;DHT22;2919;48.630;9.000;2023-09-19T12:42:04;20.70;99.30
5786;DHT22;2919;48.630;9.000;2023-09-19T12:44:35;20.80;98.10
5786;DHT22;2919;48.630;9.000;2023-09-19T12:47:12;20.50;98.70
5786;DHT22;2919;48.630;9.000;2023-09-19T12:52:47;20.30;98.70
5786;DHT22;2919;48.630;9.000;2023-09-19T12:55:43;20.10;98.70
5786;DHT22;2919;48.630;9.000;2023-09-19T12:58:12;20.50;98.40
5786;DHT22;2919;48.630;9.000;2023-09-19T13:00:39;20.90;98.40
5786;DHT22;2919;48.630;9.000;2023-09-19T13:03:15;21.70;97.20
5786;DHT22;2919;48.630;9.000;2023-09-19T13:06:02;22.00;96.90
5786;DHT22;2919;48.630;9.000;2023-09-19T13:11:10;23.30;95.30
5786;DHT22;2919;48.630;9.000;2023-09-19T13:13:49;23.50;95.80
5786;DHT22;2919;48.630;9.000;2023-09-19T13:16:19;23.20;94.40
5786;DHT22;2919;48.630;9.000;2023-09-19T13:18:55;22.80;94.40
5786;DHT22;2919;48.630;9.000;2023-09-19T13:21:30;22.80;95.50
5786;DHT22;2919;48.630;9.000;2023-09-19T13:24:19;22.80;95.00
5786;DHT22;2919;48.630;9.000;2023-09-19T13:26:44;22.50;94.90
5786;DHT22;2919;48.630;9.000;2023-09-19T13:29:11;22.50;95.50
5786;DHT22;2919;48.630;9.000;2023-09-19T13:31:37;22.50;95.10
5786;DHT22;2919;48.630;9.000;2023-09-19T13:34:07;22.40;95.40
5786;DHT22;2919;48.630;9.000;2023-09-19T13:36:32;22.40;95.10
5786;DHT22;2919;48.630;9.000;2023-09-19T13:38:59;22.20;94.70
5786;DHT22;2919;48.630;9.000;2023-09-19T13:41:25;22.50;95.40
5786;DHT22;2919;48.630;9.000;2023-09-19T13:43:51;22.50;94.70
5786;DHT22;2919;48.630;9.000;2023-09-19T13:46:17;22.40;94.70
5786;DHT22;2919;48.630;9.000;2023-09-19T13:48:51;22.20;94.60
5786;DHT22;2919;48.630;9.000;2023-09-19T13:51:17;22.30;95.00
5786;DHT22;2919;48.630;9.000;2023-09-19T13:53:44;22.20;95.10
5786;DHT22;2919;48.630;9.000;2023-09-19T13:56:10;22.20;95.30
5786;DHT22;2919;48.630;9.000;2023-09-19T13:58:36;22.10;95.40
5786;DHT22;2919;48.630;9.000;2023-09-19T14:01:02;21.90;94.80
5786;DHT22;2919;48.630;9.000;2023-09-19T14:03:28;21.70;93.90
5786;DHT22;2919;48.630;9.000;2023-09-19T14:05:54;21.60;94.40
5786;DHT22;2919;48.630;9.000;2023-09-19T14:08:20;21.60;94.40
5786;DHT22;2919;48.630;9.000;2023-09-19T14:10:45;21.60;94.80
5786;DHT22;2919;48.630;9.000;2023-09-19T14:13:11;21.60;94.50
5786;DHT22;2919;48.630;9.000;2023-09-19T14:15:38;21.80;95.80
5786;DHT22;2919;48.630;9.000;2023-09-19T14:18:04;21.70;94.40
5786;DHT22;2919;48.630;9.000;2023-09-19T14:20:30;21.40;95.10
5786;DHT22;2919;48.630;9.000;2023-09-19T14:22:57;21.30;94.90
5786;DHT22;2919;48.630;9.000;2023-09-19T14:25:24;21.20;96.10
5786;DHT22;2919;48.630;9.000;2023-09-19T14:27:50;21.20;94.70
5786;DHT22;2919;48.630;9.000;2023-09-19T14:30:17;21.20;94.20
5786;DHT22;2919;48.630;9.000;2023-09-19T14:32:42;21.30;93.70
5786;DHT22;2919;48.630;9.000;2023-09-19T14:35:08;21.50;93.90
5786;DHT22;2919;48.630;9.000;2023-09-19T14:37:40;21.50;93.50
5786;DHT22;2919;48.630;9.000;2023-09-19T14:40:06;21.50;93.90
5786;DHT22;2919;48.630;9.000;2023-09-19T14:42:35;21.60;93.40
5786;DHT22;2919;48.630;9.000;2023-09-19T14:45:02;21.90;92.90
5786;DHT22;2919;48.630;9.000;2023-09-19T14:47:30;21.90;93.40
5786;DHT22;2919;48.630;9.000;2023-09-19T14:49:57;21.90;92.50
5786;DHT22;2919;48.630;9.000;2023-09-19T14:52:23;21.70;92.70
5786;DHT22;2919;48.630;9.000;2023-09-19T14:54:52;21.70;93.40
5786;DHT22;2919;48.630;9.000;2023-09-19T14:57:18;21.60;93.50
5786;DHT22;2919;48.630;9.000;2023-09-19T14:59:44;21.60;92.60
5786;DHT22;2919;48.630;9.000;2023-09-19T15:02:10;21.70;92.70
5786;DHT22;2919;48.630;9.000;2023-09-19T15:04:35;21.60;92.70
5786;DHT22;2919;48.630;9.000;2023-09-19T15:07:01;21.50;93.20
5786;DHT22;2919;48.630;9.000;2023-09-19T15:09:28;21.50;93.00
5786;DHT22;2919;48.630;9.000;2023-09-19T15:11:54;21.40;93.70
5786;DHT22;2919;48.630;9.000;2023-09-19T15:14:20;21.40;93.50
5786;DHT22;2919;48.630;9.000;2023-09-19T15:16:46;21.30;93.50
5786;DHT22;2919;48.630;9.000;2023-09-19T15:19:13;21.40;93.90
5786;DHT22;2919;48.630;9.000;2023-09-19T15:21:39;21.40;93.00
5786;DHT22;2919;48.630;9.000;2023-09-19T15:24:05;21.40;93.60
5786;DHT22;2919;48.630;9.000;2023-09-19T15:26:35;21.50;93.80
5786;DHT22;2919;48.630;9.000;2023-09-19T15:29:05;21.50;93.20
5786;DHT22;2919;48.630;9.000;2023-09-19T15:31:31;21.40;93.20
5786;DHT22;2919;48.630;9.000;2023-09-19T15:33:56;21.30;94.00
5786;DHT22;2919;48.630;9.000;2023-09-19T15:36:22;21.30;93.40
5786;DHT22;2919;48.630;9.000;2023-09-19T15:39:08;21.40;94.00
5786;DHT22;2919;48.630;9.000;2023-09-19T15:41:39;21.20;94.30
5786;DHT22;2919;48.630;9.000;2023-09-19T15:44:12;21.30;93.90
5786;DHT22;2919;48.630;9.000;2023-09-19T15:46:38;21.20;93.80
5786;DHT22;2919;48.630;9.000;2023-09-19T15:49:04;21.20;94.10
5786;DHT22;2919;48.630;9.000;2023-09-19T15:51:30;21.00;94.30
5786;DHT22;2919;48.630;9.000;2023-09-19T15:53:56;21.00;94.20
5786;DHT22;2919;48.630;9.000;2023-09-19T15:56:23;21.00;94.30
5786;DHT22;2919;48.630;9.000;2023-09-19T15:58:50;21.00;94.40
5786;DHT22;2919;48.630;9.000;2023-09-19T16:01:17;21.10;94.70
5786;DHT22;2919;48.630;9.000;2023-09-19T16:03:44;20.90;94.10
5786;DHT22;2919;48.630;9.000;2023-09-19T16:06:18;20.90;94.60
5786;DHT22;2919;48.630;9.000;2023-09-19T16:08:46;20.90;94.80
5786;DHT22;2919;48.630;9.000;2023-09-19T16:11:12;20.80;94.90
5786;DHT22;2919;48.630;9.000;2023-09-19T16:13:38;20.70;94.80
5786;DHT22;2919;48.630;9.000;2023-09-19T16:16:04;20.70;94.90
5786;DHT22;2919;48.630;9.000;2023-09-19T16:18:30;20.70;94.50
5786;DHT22;2919;48.630;9.000;2023-09-19T16:21:06;20.70;94.30
5786;DHT22;2919;48.630;9.000;2023-09-19T16:23:36;20.50;94.70
5786;DHT22;2919;48.630;9.000;2023-09-19T16:26:06;20.40;94.80
5786;DHT22;2919;48.630;9.000;2023-09-19T16:28:33;20.30;95.00
5786;DHT22;2919;48.630;9.000;2023-09-19T16:31:03;20.20;95.20
5786;DHT22;2919;48.630;9.000;2023-09-19T16:33:31;20.30;95.20
5786;DHT22;2919;48.630;9.000;2023-09-19T16:35:57;20.20;95.50
5786;DHT22;2919;48.630;9.000;2023-09-19T16:38:24;20.10;95.70
5786;DHT22;2919;48.630;9.000;2023-09-19T16:40:55;20.00;96.00
5786;DHT22;2919;48.630;9.000;2023-09-19T16:43:22;20.00;95.80
5786;DHT22;2919;48.630;9.000;2023-09-19T16:45:53;19.90;96.30
5786;DHT22;2919;48.630;9.000;2023-09-19T16:48:20;19.70;96.60
5786;DHT22;2919;48.630;9.000;2023-09-19T16:50:46;19.60;96.90
5786;DHT22;2919;48.630;9.000;2023-09-19T16:53:11;19.50;96.40
5786;DHT22;2919;48.630;9.000;2023-09-19T16:55:37;19.40;96.50
5786;DHT22;2919;48.630;9.000;2023-09-19T16:58:04;19.30;97.00
5786;DHT22;2919;48.630;9.000;2023-09-19T17:00:30;19.10;96.60
5786;DHT22;2919;48.630;9.000;2023-09-19T17:02:56;19.10;96.60
5786;DHT22;2919;48.630;9.000;2023-09-19T17:05:22;19.10;97.00
5786;DHT22;2919;48.630;9.000;2023-09-19T17:07:48;19.20;96.50
5786;DHT22;2919;48.630;9.000;2023-09-19T17:10:13;19.10;96.90
5786;DHT22;2919;48.630;9.000;2023-09-19T17:12:39;19.00;97.00
5786;DHT22;2919;48.630;9.000;2023-09-19T17:15:05;19.00;97.30
5786;DHT22;2919;48.630;9.000;2023-09-19T17:17:31;18.90;97.50
5786;DHT22;2919;48.630;9.000;2023-09-19T17:19:56;18.70;97.80
5786;DHT22;2919;48.630;9.000;2023-09-19T17:22:22;18.70;97.70
5786;DHT22;2919;48.630;9.000;2023-09-19T17:24:48;18.60;97.60
5786;DHT22;2919;48.630;9.000;2023-09-19T17:27:15;18.50;98.20
5786;DHT22;2919;48.630;9.000;2023-09-19T17:29:40;18.40;98.10
5786;DHT22;2919;48.630;9.000;2023-09-19T17:32:06;18.30;98.80